sensor_id;sensor_type;location;lat;lon;timestamp;P1;durP1;ratioP1;P2;durP2;ratioP2
19971;SDS011;10147;16.402;102.848;2023-12-20T00:00:46;16.48;;;11.30;;
19971;SDS011;10147;16.402;102.848;2023-12-20T00:03:16;16.08;;;12.68;;
19971;SDS011;10147;16.402;102.848;2023-12-20T00:05:47;17.63;;;15.35;;
19971;SDS011;10147;16.402;102.848;2023-12-20T00:08:17;17.50;;;15.57;;
19971;SDS011;10147;16.402;102.848;2023-12-20T00:10:47;18.50;;;15.63;;
19971;SDS011;10147;16.402;102.848;2023-12-20T00:13:17;15.52;;;13.60;;
19971;SDS011;10147;16.402;102.848;2023-12-20T00:15:46;17.80;;;16.00;;
19971;SDS011;10147;16.402;102.848;2023-12-20T00:18:16;18.33;;;16.00;;
19971;SDS011;10147;16.402;102.848;2023-12-20T00:20:46;17.58;;;15.73;;
19971;SDS011;10147;16.402;102.848;2023-12-20T00:23:16;19.38;;;15.18;;
19971;SDS011;10147;16.402;102.848;2023-12-20T00:25:46;15.13;;;13.73;;
19971;SDS011;10147;16.402;102.848;2023-12-20T00:28:18;15.00;;;13.05;;
19971;SDS011;10147;16.402;102.848;2023-12-20T00:30:48;17.65;;;12.60;;
19971;SDS011;10147;16.402;102.848;2023-12-20T00:33:18;13.75;;;12.35;;
19971;SDS011;10147;16.402;102.848;2023-12-20T00:35:48;14.45;;;12.98;;
19971;SDS011;10147;16.402;102.848;2023-12-20T00:38:18;13.82;;;12.40;;
19971;SDS011;10147;16.402;102.848;2023-12-20T00:40:48;13.88;;;12.52;;
19971;SDS011;10147;16.402;102.848;2023-12-20T00:43:18;14.63;;;13.13;;
19971;SDS011;10147;16.402;102.848;2023-12-20T00:45:48;13.05;;;11.90;;
19971;SDS011;10147;16.402;102.848;2023-12-20T00:48:18;13.43;;;12.10;;
19971;SDS011;10147;16.402;102.848;2023-12-20T00:50:48;14.82;;;11.77;;
19971;SDS011;10147;16.402;102.848;2023-12-20T00:53:17;12.32;;;11.13;;
19971;SDS011;10147;16.402;102.848;2023-12-20T00:55:47;13.48;;;12.18;;
19971;SDS011;10147;16.402;102.848;2023-12-20T00:58:19;15.88;;;12.45;;
19971;SDS011;10147;16.402;102.848;2023-12-20T01:00:48;13.30;;;11.93;;
19971;SDS011;10147;16.402;102.848;2023-12-20T01:03:19;14.48;;;12.15;;
19971;SDS011;10147;16.402;102.848;2023-12-20T01:05:48;13.70;;;11.93;;
19971;SDS011;10147;16.402;102.848;2023-12-20T01:08:19;13.93;;;11.88;;
19971;SDS011;10147;16.402;102.848;2023-12-20T01:10:48;14.55;;;12.77;;
19971;SDS011;10147;16.402;102.848;2023-12-20T01:13:18;15.85;;;13.27;;
19971;SDS011;10147;16.402;102.848;2023-12-20T01:15:48;17.02;;;11.73;;
19971;SDS011;10147;16.402;102.848;2023-12-20T01:18:18;46.45;;;42.25;;
19971;SDS011;10147;16.402;102.848;2023-12-20T01:20:48;45.58;;;41.83;;
19971;SDS011;10147;16.402;102.848;2023-12-20T01:23:18;48.47;;;44.55;;
19971;SDS011;10147;16.402;102.848;2023-12-20T01:25:48;15.13;;;13.57;;
19971;SDS011;10147;16.402;102.848;2023-12-20T01:28:18;23.23;;;13.93;;
19971;SDS011;10147;16.402;102.848;2023-12-20T01:30:50;31.38;;;28.48;;
19971;SDS011;10147;16.402;102.848;2023-12-20T01:33:21;29.17;;;26.63;;
19971;SDS011;10147;16.402;102.848;2023-12-20T01:35:51;27.05;;;24.70;;
19971;SDS011;10147;16.402;102.848;2023-12-20T01:38:20;13.73;;;11.27;;
19971;SDS011;10147;16.402;102.848;2023-12-20T01:40:51;12.07;;;10.85;;
19971;SDS011;10147;16.402;102.848;2023-12-20T01:43:20;15.32;;;11.45;;
19971;SDS011;10147;16.402;102.848;2023-12-20T01:45:55;11.68;;;10.48;;
19971;SDS011;10147;16.402;102.848;2023-12-20T01:48:26;11.98;;;10.80;;
19971;SDS011;10147;16.402;102.848;2023-12-20T01:50:59;10.98;;;9.88;;
19971;SDS011;10147;16.402;102.848;2023-12-20T01:53:29;13.65;;;10.65;;
19971;SDS011;10147;16.402;102.848;2023-12-20T01:56:01;12.00;;;9.25;;
19971;SDS011;10147;16.402;102.848;2023-12-20T01:58:31;11.25;;;10.13;;
19971;SDS011;10147;16.402;102.848;2023-12-20T02:01:02;10.07;;;9.10;;
19971;SDS011;10147;16.402;102.848;2023-12-20T02:03:32;9.48;;;8.57;;
19971;SDS011;10147;16.402;102.848;2023-12-20T02:06:07;9.90;;;8.90;;
19971;SDS011;10147;16.402;102.848;2023-12-20T02:08:38;10.35;;;9.35;;
19971;SDS011;10147;16.402;102.848;2023-12-20T02:11:07;10.20;;;8.40;;
19971;SDS011;10147;16.402;102.848;2023-12-20T02:13:38;13.20;;;12.02;;
19971;SDS011;10147;16.402;102.848;2023-12-20T02:16:08;11.73;;;9.00;;
19971;SDS011;10147;16.402;102.848;2023-12-20T02:18:39;10.45;;;8.57;;
19971;SDS011;10147;16.402;102.848;2023-12-20T02:21:16;10.93;;;9.32;;
19971;SDS011;10147;16.402;102.848;2023-12-20T02:23:46;14.95;;;10.13;;
19971;SDS011;10147;16.402;102.848;2023-12-20T02:26:16;10.63;;;9.68;;
19971;SDS011;10147;16.402;102.848;2023-12-20T02:28:48;9.77;;;8.77;;
19971;SDS011;10147;16.402;102.848;2023-12-20T02:31:20;12.98;;;8.82;;
19971;SDS011;10147;16.402;102.848;2023-12-20T02:33:51;11.07;;;9.85;;
19971;SDS011;10147;16.402;102.848;2023-12-20T02:36:21;10.63;;;9.52;;
19971;SDS011;10147;16.402;102.848;2023-12-20T02:38:51;10.70;;;9.73;;
19971;SDS011;10147;16.402;102.848;2023-12-20T02:41:20;11.38;;;9.35;;
19971;SDS011;10147;16.402;102.848;2023-12-20T02:43:50;10.50;;;9.50;;
19971;SDS011;10147;16.402;102.848;2023-12-20T02:46:20;10.23;;;9.23;;
19971;SDS011;10147;16.402;102.848;2023-12-20T02:48:50;11.85;;;9.95;;
19971;SDS011;10147;16.402;102.848;2023-12-20T02:51:20;28.83;;;26.63;;
19971;SDS011;10147;16.402;102.848;2023-12-20T02:53:50;33.22;;;30.33;;
19971;SDS011;10147;16.402;102.848;2023-12-20T02:56:20;14.05;;;10.93;;
19971;SDS011;10147;16.402;102.848;2023-12-20T02:58:50;11.95;;;10.10;;
19971;SDS011;10147;16.402;102.848;2023-12-20T03:01:19;13.60;;;10.07;;
19971;SDS011;10147;16.402;102.848;2023-12-20T03:03:49;13.75;;;10.38;;
19971;SDS011;10147;16.402;102.848;2023-12-20T03:06:19;12.40;;;9.55;;
19971;SDS011;10147;16.402;102.848;2023-12-20T03:08:49;11.23;;;10.10;;
19971;SDS011;10147;16.402;102.848;2023-12-20T03:11:19;13.40;;;11.95;;
19971;SDS011;10147;16.402;102.848;2023-12-20T03:13:49;12.18;;;9.77;;
19971;SDS011;10147;16.402;102.848;2023-12-20T03:16:19;11.32;;;10.13;;
19971;SDS011;10147;16.402;102.848;2023-12-20T03:18:49;10.60;;;9.32;;
19971;SDS011;10147;16.402;102.848;2023-12-20T03:21:19;18.25;;;10.98;;
19971;SDS011;10147;16.402;102.848;2023-12-20T03:23:49;13.07;;;11.07;;
19971;SDS011;10147;16.402;102.848;2023-12-20T03:26:19;15.80;;;11.10;;
19971;SDS011;10147;16.402;102.848;2023-12-20T03:28:49;17.73;;;12.05;;
19971;SDS011;10147;16.402;102.848;2023-12-20T03:31:20;11.73;;;10.23;;
19971;SDS011;10147;16.402;102.848;2023-12-20T03:33:50;17.60;;;11.13;;
19971;SDS011;10147;16.402;102.848;2023-12-20T03:36:22;16.02;;;12.55;;
19971;SDS011;10147;16.402;102.848;2023-12-20T03:38:52;14.88;;;12.10;;
19971;SDS011;10147;16.402;102.848;2023-12-20T03:41:22;19.95;;;12.65;;
19971;SDS011;10147;16.402;102.848;2023-12-20T03:43:52;30.90;;;21.13;;
19971;SDS011;10147;16.402;102.848;2023-12-20T03:46:22;14.95;;;12.80;;
19971;SDS011;10147;16.402;102.848;2023-12-20T03:48:52;16.98;;;12.70;;
19971;SDS011;10147;16.402;102.848;2023-12-20T03:51:22;15.10;;;12.23;;
19971;SDS011;10147;16.402;102.848;2023-12-20T03:53:52;12.80;;;11.55;;
19971;SDS011;10147;16.402;102.848;2023-12-20T03:56:22;13.40;;;11.63;;
19971;SDS011;10147;16.402;102.848;2023-12-20T03:58:52;12.75;;;11.35;;
19971;SDS011;10147;16.402;102.848;2023-12-20T04:01:22;14.95;;;11.05;;
19971;SDS011;10147;16.402;102.848;2023-12-20T04:03:52;11.75;;;10.52;;
19971;SDS011;10147;16.402;102.848;2023-12-20T04:06:22;14.52;;;12.07;;
19971;SDS011;10147;16.402;102.848;2023-12-20T04:08:52;12.45;;;11.15;;
19971;SDS011;10147;16.402;102.848;2023-12-20T04:11:22;13.15;;;10.63;;
19971;SDS011;10147;16.402;102.848;2023-12-20T04:13:52;11.00;;;9.90;;
19971;SDS011;10147;16.402;102.848;2023-12-20T04:16:23;11.73;;;9.93;;
19971;SDS011;10147;16.402;102.848;2023-12-20T04:18:53;13.82;;;10.68;;
19971;SDS011;10147;16.402;102.848;2023-12-20T04:21:23;12.45;;;9.50;;
19971;SDS011;10147;16.402;102.848;2023-12-20T04:23:53;13.48;;;9.75;;
19971;SDS011;10147;16.402;102.848;2023-12-20T04:26:23;14.10;;;9.68;;
19971;SDS011;10147;16.402;102.848;2023-12-20T04:28:55;12.13;;;9.57;;
19971;SDS011;10147;16.402;102.848;2023-12-20T04:31:25;14.32;;;11.88;;
19971;SDS011;10147;16.402;102.848;2023-12-20T04:33:55;11.73;;;10.50;;
19971;SDS011;10147;16.402;102.848;2023-12-20T04:36:25;14.45;;;10.82;;
19971;SDS011;10147;16.402;102.848;2023-12-20T04:38:55;11.68;;;10.48;;
19971;SDS011;10147;16.402;102.848;2023-12-20T04:41:25;14.85;;;11.52;;
19971;SDS011;10147;16.402;102.848;2023-12-20T04:43:56;13.32;;;10.93;;
19971;SDS011;10147;16.402;102.848;2023-12-20T04:46:26;12.35;;;10.50;;
19971;SDS011;10147;16.402;102.848;2023-12-20T04:48:56;10.98;;;9.60;;
19971;SDS011;10147;16.402;102.848;2023-12-20T04:51:26;11.00;;;9.70;;
19971;SDS011;10147;16.402;102.848;2023-12-20T04:53:56;14.50;;;8.88;;
19971;SDS011;10147;16.402;102.848;2023-12-20T04:56:26;13.35;;;9.88;;
19971;SDS011;10147;16.402;102.848;2023-12-20T04:58:56;11.60;;;10.15;;
19971;SDS011;10147;16.402;102.848;2023-12-20T05:01:25;11.77;;;9.00;;
19971;SDS011;10147;16.402;102.848;2023-12-20T05:03:59;12.35;;;9.10;;
19971;SDS011;10147;16.402;102.848;2023-12-20T05:06:29;9.43;;;8.40;;
19971;SDS011;10147;16.402;102.848;2023-12-20T05:08:58;30.60;;;27.67;;
19971;SDS011;10147;16.402;102.848;2023-12-20T05:11:29;26.92;;;24.63;;
19971;SDS011;10147;16.402;102.848;2023-12-20T05:13:58;8.93;;;8.02;;
19971;SDS011;10147;16.402;102.848;2023-12-20T05:16:28;10.43;;;8.43;;
19971;SDS011;10147;16.402;102.848;2023-12-20T05:18:58;9.05;;;8.15;;
19971;SDS011;10147;16.402;102.848;2023-12-20T05:21:31;8.57;;;7.53;;
19971;SDS011;10147;16.402;102.848;2023-12-20T05:24:02;8.38;;;7.22;;
19971;SDS011;10147;16.402;102.848;2023-12-20T05:26:31;8.85;;;7.20;;
19971;SDS011;10147;16.402;102.848;2023-12-20T05:29:02;8.15;;;6.78;;
19971;SDS011;10147;16.402;102.848;2023-12-20T05:31:32;8.15;;;7.32;;
19971;SDS011;10147;16.402;102.848;2023-12-20T05:34:02;9.05;;;8.10;;
19971;SDS011;10147;16.402;102.848;2023-12-20T05:36:32;7.65;;;6.85;;
19971;SDS011;10147;16.402;102.848;2023-12-20T05:39:02;9.50;;;7.10;;
19971;SDS011;10147;16.402;102.848;2023-12-20T05:41:32;10.13;;;7.45;;
19971;SDS011;10147;16.402;102.848;2023-12-20T05:44:02;10.50;;;6.97;;
19971;SDS011;10147;16.402;102.848;2023-12-20T05:46:32;7.07;;;6.40;;
19971;SDS011;10147;16.402;102.848;2023-12-20T05:49:02;7.43;;;6.63;;
19971;SDS011;10147;16.402;102.848;2023-12-20T05:51:33;7.78;;;7.07;;
19971;SDS011;10147;16.402;102.848;2023-12-20T05:54:03;7.85;;;7.05;;
19971;SDS011;10147;16.402;102.848;2023-12-20T05:56:33;7.65;;;6.93;;
19971;SDS011;10147;16.402;102.848;2023-12-20T05:59:02;7.70;;;7.00;;
19971;SDS011;10147;16.402;102.848;2023-12-20T06:01:32;7.53;;;6.85;;
19971;SDS011;10147;16.402;102.848;2023-12-20T06:04:03;9.18;;;7.32;;
19971;SDS011;10147;16.402;102.848;2023-12-20T06:06:33;9.82;;;7.53;;
19971;SDS011;10147;16.402;102.848;2023-12-20T06:09:03;8.30;;;7.55;;
19971;SDS011;10147;16.402;102.848;2023-12-20T06:11:33;8.35;;;7.43;;
19971;SDS011;10147;16.402;102.848;2023-12-20T06:14:03;8.32;;;7.53;;
19971;SDS011;10147;16.402;102.848;2023-12-20T06:16:33;8.48;;;7.38;;
19971;SDS011;10147;16.402;102.848;2023-12-20T06:19:03;12.85;;;7.43;;
19971;SDS011;10147;16.402;102.848;2023-12-20T06:21:33;9.20;;;6.82;;
19971;SDS011;10147;16.402;102.848;2023-12-20T06:24:03;7.65;;;6.90;;
19971;SDS011;10147;16.402;102.848;2023-12-20T06:26:33;9.35;;;6.75;;
19971;SDS011;10147;16.402;102.848;2023-12-20T06:29:03;7.28;;;6.57;;
19971;SDS011;10147;16.402;102.848;2023-12-20T06:31:33;11.18;;;7.63;;
19971;SDS011;10147;16.402;102.848;2023-12-20T06:34:03;10.38;;;7.05;;
19971;SDS011;10147;16.402;102.848;2023-12-20T06:36:34;8.57;;;7.07;;
19971;SDS011;10147;16.402;102.848;2023-12-20T06:39:03;8.05;;;6.32;;
19971;SDS011;10147;16.402;102.848;2023-12-20T06:41:33;9.13;;;7.35;;
19971;SDS011;10147;16.402;102.848;2023-12-20T06:44:03;11.57;;;7.80;;
19971;SDS011;10147;16.402;102.848;2023-12-20T06:46:33;16.70;;;7.15;;
19971;SDS011;10147;16.402;102.848;2023-12-20T06:49:04;10.30;;;6.40;;
19971;SDS011;10147;16.402;102.848;2023-12-20T06:51:34;7.30;;;6.60;;
19971;SDS011;10147;16.402;102.848;2023-12-20T06:54:03;9.50;;;6.45;;
19971;SDS011;10147;16.402;102.848;2023-12-20T06:56:33;12.60;;;6.35;;
19971;SDS011;10147;16.402;102.848;2023-12-20T06:59:03;8.63;;;6.03;;
19971;SDS011;10147;16.402;102.848;2023-12-20T07:01:33;6.97;;;5.50;;
19971;SDS011;10147;16.402;102.848;2023-12-20T07:04:03;9.05;;;6.22;;
19971;SDS011;10147;16.402;102.848;2023-12-20T07:06:33;12.60;;;6.90;;
19971;SDS011;10147;16.402;102.848;2023-12-20T07:09:03;8.65;;;5.85;;
19971;SDS011;10147;16.402;102.848;2023-12-20T07:11:32;7.43;;;5.75;;
19971;SDS011;10147;16.402;102.848;2023-12-20T07:14:02;16.17;;;5.93;;
19971;SDS011;10147;16.402;102.848;2023-12-20T07:16:32;10.52;;;5.32;;
19971;SDS011;10147;16.402;102.848;2023-12-20T07:19:03;6.30;;;5.68;;
19971;SDS011;10147;16.402;102.848;2023-12-20T07:21:33;6.55;;;5.80;;
19971;SDS011;10147;16.402;102.848;2023-12-20T07:24:03;8.65;;;5.80;;
19971;SDS011;10147;16.402;102.848;2023-12-20T07:26:33;6.78;;;6.10;;
19971;SDS011;10147;16.402;102.848;2023-12-20T07:29:04;6.78;;;6.15;;
19971;SDS011;10147;16.402;102.848;2023-12-20T07:31:35;6.82;;;5.97;;
19971;SDS011;10147;16.402;102.848;2023-12-20T07:34:05;7.15;;;6.43;;
19971;SDS011;10147;16.402;102.848;2023-12-20T07:36:35;7.95;;;7.18;;
19971;SDS011;10147;16.402;102.848;2023-12-20T07:39:06;7.75;;;6.95;;
19971;SDS011;10147;16.402;102.848;2023-12-20T07:41:36;6.63;;;6.00;;
19971;SDS011;10147;16.402;102.848;2023-12-20T07:44:06;7.30;;;6.00;;
19971;SDS011;10147;16.402;102.848;2023-12-20T07:46:36;6.32;;;5.72;;
19971;SDS011;10147;16.402;102.848;2023-12-20T07:49:06;6.65;;;5.93;;
19971;SDS011;10147;16.402;102.848;2023-12-20T07:51:37;7.38;;;5.82;;
19971;SDS011;10147;16.402;102.848;2023-12-20T07:54:07;6.95;;;6.32;;
19971;SDS011;10147;16.402;102.848;2023-12-20T07:56:37;9.90;;;6.57;;
19971;SDS011;10147;16.402;102.848;2023-12-20T07:59:08;7.72;;;6.72;;
19971;SDS011;10147;16.402;102.848;2023-12-20T08:01:51;11.57;;;10.57;;
19971;SDS011;10147;16.402;102.848;2023-12-20T08:04:21;12.48;;;11.35;;
19971;SDS011;10147;16.402;102.848;2023-12-20T08:06:52;8.52;;;6.45;;
19971;SDS011;10147;16.402;102.848;2023-12-20T08:09:21;12.27;;;6.90;;
19971;SDS011;10147;16.402;102.848;2023-12-20T08:11:52;7.35;;;6.53;;
19971;SDS011;10147;16.402;102.848;2023-12-20T08:14:21;7.93;;;6.60;;
19971;SDS011;10147;16.402;102.848;2023-12-20T08:16:51;7.63;;;6.93;;
19971;SDS011;10147;16.402;102.848;2023-12-20T08:19:21;7.85;;;6.30;;
19971;SDS011;10147;16.402;102.848;2023-12-20T08:21:51;7.47;;;6.32;;
19971;SDS011;10147;16.402;102.848;2023-12-20T08:24:21;7.20;;;6.50;;
19971;SDS011;10147;16.402;102.848;2023-12-20T08:26:51;13.50;;;7.13;;
19971;SDS011;10147;16.402;102.848;2023-12-20T08:29:21;11.57;;;5.85;;
19971;SDS011;10147;16.402;102.848;2023-12-20T08:31:52;9.27;;;5.50;;
19971;SDS011;10147;16.402;102.848;2023-12-20T08:34:23;6.38;;;5.78;;
19971;SDS011;10147;16.402;102.848;2023-12-20T08:36:53;12.85;;;5.75;;
19971;SDS011;10147;16.402;102.848;2023-12-20T08:39:23;11.43;;;5.50;;
19971;SDS011;10147;16.402;102.848;2023-12-20T08:41:53;5.95;;;5.45;;
19971;SDS011;10147;16.402;102.848;2023-12-20T08:44:23;6.22;;;5.43;;
19971;SDS011;10147;16.402;102.848;2023-12-20T08:46:53;8.10;;;5.50;;
19971;SDS011;10147;16.402;102.848;2023-12-20T08:49:25;8.35;;;7.70;;
19971;SDS011;10147;16.402;102.848;2023-12-20T08:51:56;9.45;;;8.43;;
19971;SDS011;10147;16.402;102.848;2023-12-20T08:54:26;6.03;;;5.43;;
19971;SDS011;10147;16.402;102.848;2023-12-20T08:56:56;9.65;;;8.95;;
19971;SDS011;10147;16.402;102.848;2023-12-20T08:59:26;7.88;;;5.30;;
19971;SDS011;10147;16.402;102.848;2023-12-20T09:01:56;10.45;;;9.55;;
19971;SDS011;10147;16.402;102.848;2023-12-20T09:04:26;11.63;;;10.63;;
19971;SDS011;10147;16.402;102.848;2023-12-20T09:06:56;11.38;;;10.23;;
19971;SDS011;10147;16.402;102.848;2023-12-20T09:09:28;6.15;;;5.47;;
19971;SDS011;10147;16.402;102.848;2023-12-20T09:12:01;6.55;;;5.63;;
19971;SDS011;10147;16.402;102.848;2023-12-20T09:14:31;9.10;;;5.68;;
19971;SDS011;10147;16.402;102.848;2023-12-20T09:17:01;6.43;;;5.82;;
19971;SDS011;10147;16.402;102.848;2023-12-20T09:19:32;20.45;;;18.75;;
19971;SDS011;10147;16.402;102.848;2023-12-20T09:22:01;20.52;;;18.73;;
19971;SDS011;10147;16.402;102.848;2023-12-20T09:24:32;7.70;;;5.72;;
19971;SDS011;10147;16.402;102.848;2023-12-20T09:27:02;7.35;;;5.53;;
19971;SDS011;10147;16.402;102.848;2023-12-20T09:29:33;7.05;;;5.68;;
19971;SDS011;10147;16.402;102.848;2023-12-20T09:32:03;5.35;;;4.90;;
19971;SDS011;10147;16.402;102.848;2023-12-20T09:34:33;5.80;;;5.30;;
19971;SDS011;10147;16.402;102.848;2023-12-20T09:37:06;5.55;;;5.10;;
19971;SDS011;10147;16.402;102.848;2023-12-20T09:39:36;6.35;;;5.35;;
19971;SDS011;10147;16.402;102.848;2023-12-20T09:42:06;5.68;;;4.97;;
19971;SDS011;10147;16.402;102.848;2023-12-20T09:44:36;16.40;;;15.30;;
19971;SDS011;10147;16.402;102.848;2023-12-20T09:47:09;16.65;;;15.45;;
19971;SDS011;10147;16.402;102.848;2023-12-20T09:49:39;8.35;;;5.40;;
19971;SDS011;10147;16.402;102.848;2023-12-20T09:52:12;6.18;;;5.57;;
19971;SDS011;10147;16.402;102.848;2023-12-20T09:54:43;5.35;;;4.82;;
19971;SDS011;10147;16.402;102.848;2023-12-20T09:57:15;5.88;;;4.82;;
19971;SDS011;10147;16.402;102.848;2023-12-20T09:59:44;7.72;;;4.97;;
19971;SDS011;10147;16.402;102.848;2023-12-20T10:02:14;5.80;;;5.30;;
19971;SDS011;10147;16.402;102.848;2023-12-20T10:04:47;8.90;;;6.55;;
19971;SDS011;10147;16.402;102.848;2023-12-20T10:07:17;10.23;;;6.63;;
19971;SDS011;10147;16.402;102.848;2023-12-20T10:09:48;7.03;;;6.32;;
19971;SDS011;10147;16.402;102.848;2023-12-20T10:12:19;11.40;;;6.95;;
19971;SDS011;10147;16.402;102.848;2023-12-20T10:14:49;22.70;;;9.27;;
19971;SDS011;10147;16.402;102.848;2023-12-20T10:17:20;11.25;;;6.60;;
19971;SDS011;10147;16.402;102.848;2023-12-20T10:19:52;9.20;;;6.55;;
19971;SDS011;10147;16.402;102.848;2023-12-20T10:22:22;9.63;;;7.00;;
19971;SDS011;10147;16.402;102.848;2023-12-20T10:24:52;11.93;;;7.75;;
19971;SDS011;10147;16.402;102.848;2023-12-20T10:27:21;13.15;;;10.82;;
19971;SDS011;10147;16.402;102.848;2023-12-20T10:29:53;11.57;;;8.45;;
19971;SDS011;10147;16.402;102.848;2023-12-20T10:32:24;10.27;;;7.72;;
19971;SDS011;10147;16.402;102.848;2023-12-20T10:34:55;9.93;;;7.25;;
19971;SDS011;10147;16.402;102.848;2023-12-20T10:37:26;8.95;;;7.32;;
19971;SDS011;10147;16.402;102.848;2023-12-20T10:39:56;22.80;;;20.73;;
19971;SDS011;10147;16.402;102.848;2023-12-20T10:42:30;18.00;;;10.98;;
19971;SDS011;10147;16.402;102.848;2023-12-20T10:45:00;10.68;;;7.80;;
19971;SDS011;10147;16.402;102.848;2023-12-20T10:47:31;14.15;;;9.02;;
19971;SDS011;10147;16.402;102.848;2023-12-20T10:50:04;15.85;;;9.15;;
19971;SDS011;10147;16.402;102.848;2023-12-20T10:52:36;11.38;;;7.70;;
19971;SDS011;10147;16.402;102.848;2023-12-20T10:55:07;19.52;;;17.10;;
19971;SDS011;10147;16.402;102.848;2023-12-20T10:57:38;19.27;;;17.48;;
19971;SDS011;10147;16.402;102.848;2023-12-20T11:00:08;20.20;;;18.38;;
19971;SDS011;10147;16.402;102.848;2023-12-20T11:02:43;19.27;;;17.50;;
19971;SDS011;10147;16.402;102.848;2023-12-20T11:05:22;21.40;;;19.02;;
19971;SDS011;10147;16.402;102.848;2023-12-20T11:08:09;17.92;;;12.20;;
19971;SDS011;10147;16.402;102.848;2023-12-20T11:10:57;17.00;;;11.30;;
19971;SDS011;10147;16.402;102.848;2023-12-20T11:13:41;22.77;;;12.55;;
19971;SDS011;10147;16.402;102.848;2023-12-20T11:16:21;18.30;;;12.20;;
19971;SDS011;10147;16.402;102.848;2023-12-20T11:21:49;22.15;;;13.85;;
19971;SDS011;10147;16.402;102.848;2023-12-20T11:24:21;21.90;;;14.85;;
19971;SDS011;10147;16.402;102.848;2023-12-20T11:26:55;22.63;;;15.45;;
19971;SDS011;10147;16.402;102.848;2023-12-20T11:29:35;24.95;;;15.90;;
19971;SDS011;10147;16.402;102.848;2023-12-20T11:34:58;29.15;;;18.42;;
19971;SDS011;10147;16.402;102.848;2023-12-20T11:37:30;29.17;;;20.73;;
19971;SDS011;10147;16.402;102.848;2023-12-20T11:40:07;26.45;;;19.65;;
19971;SDS011;10147;16.402;102.848;2023-12-20T11:42:44;30.25;;;19.48;;
19971;SDS011;10147;16.402;102.848;2023-12-20T11:45:18;28.17;;;17.95;;
19971;SDS011;10147;16.402;102.848;2023-12-20T11:47:57;23.25;;;19.00;;
19971;SDS011;10147;16.402;102.848;2023-12-20T11:50:27;26.65;;;18.80;;
19971;SDS011;10147;16.402;102.848;2023-12-20T11:52:58;32.40;;;22.02;;
19971;SDS011;10147;16.402;102.848;2023-12-20T11:55:28;34.55;;;22.38;;
19971;SDS011;10147;16.402;102.848;2023-12-20T11:57:58;31.58;;;23.80;;
19971;SDS011;10147;16.402;102.848;2023-12-20T12:00:28;30.02;;;24.25;;
19971;SDS011;10147;16.402;102.848;2023-12-20T12:02:59;39.53;;;25.90;;
19971;SDS011;10147;16.402;102.848;2023-12-20T12:05:31;35.40;;;24.33;;
19971;SDS011;10147;16.402;102.848;2023-12-20T12:08:02;35.17;;;23.65;;
19971;SDS011;10147;16.402;102.848;2023-12-20T12:10:35;30.83;;;20.70;;
19971;SDS011;10147;16.402;102.848;2023-12-20T12:13:05;27.88;;;20.35;;
19971;SDS011;10147;16.402;102.848;2023-12-20T12:15:36;28.10;;;17.73;;
19971;SDS011;10147;16.402;102.848;2023-12-20T12:18:07;31.90;;;25.80;;
19971;SDS011;10147;16.402;102.848;2023-12-20T12:20:37;26.88;;;24.08;;
19971;SDS011;10147;16.402;102.848;2023-12-20T12:23:07;19.77;;;13.50;;
19971;SDS011;10147;16.402;102.848;2023-12-20T12:25:37;28.52;;;13.63;;
19971;SDS011;10147;16.402;102.848;2023-12-20T12:28:10;20.17;;;13.73;;
19971;SDS011;10147;16.402;102.848;2023-12-20T12:30:40;15.13;;;11.18;;
19971;SDS011;10147;16.402;102.848;2023-12-20T12:33:22;20.40;;;12.98;;
19971;SDS011;10147;16.402;102.848;2023-12-20T12:35:54;16.80;;;9.45;;
19971;SDS011;10147;16.402;102.848;2023-12-20T12:38:25;11.98;;;9.07;;
19971;SDS011;10147;16.402;102.848;2023-12-20T12:40:56;15.73;;;8.63;;
19971;SDS011;10147;16.402;102.848;2023-12-20T12:43:27;14.27;;;9.18;;
19971;SDS011;10147;16.402;102.848;2023-12-20T12:46:00;14.45;;;8.82;;
19971;SDS011;10147;16.402;102.848;2023-12-20T12:48:30;17.40;;;12.57;;
19971;SDS011;10147;16.402;102.848;2023-12-20T12:51:00;12.65;;;9.10;;
19971;SDS011;10147;16.402;102.848;2023-12-20T12:53:30;12.43;;;9.55;;
19971;SDS011;10147;16.402;102.848;2023-12-20T12:56:01;15.35;;;9.70;;
19971;SDS011;10147;16.402;102.848;2023-12-20T12:58:31;13.18;;;8.52;;
19971;SDS011;10147;16.402;102.848;2023-12-20T13:01:01;12.70;;;8.35;;
19971;SDS011;10147;16.402;102.848;2023-12-20T13:03:32;11.73;;;7.70;;
19971;SDS011;10147;16.402;102.848;2023-12-20T13:06:03;10.43;;;8.05;;
19971;SDS011;10147;16.402;102.848;2023-12-20T13:08:34;10.73;;;7.22;;
19971;SDS011;10147;16.402;102.848;2023-12-20T13:11:04;9.65;;;6.95;;
19971;SDS011;10147;16.402;102.848;2023-12-20T13:13:35;9.50;;;7.45;;
19971;SDS011;10147;16.402;102.848;2023-12-20T13:16:05;13.32;;;6.88;;
19971;SDS011;10147;16.402;102.848;2023-12-20T13:18:35;13.77;;;7.47;;
19971;SDS011;10147;16.402;102.848;2023-12-20T13:21:06;8.77;;;7.57;;
19971;SDS011;10147;16.402;102.848;2023-12-20T13:23:36;11.35;;;9.05;;
19971;SDS011;10147;16.402;102.848;2023-12-20T13:26:07;20.75;;;10.85;;
19971;SDS011;10147;16.402;102.848;2023-12-20T13:28:37;11.95;;;6.97;;
19971;SDS011;10147;16.402;102.848;2023-12-20T13:31:08;11.90;;;7.43;;
19971;SDS011;10147;16.402;102.848;2023-12-20T13:33:39;13.43;;;8.02;;
19971;SDS011;10147;16.402;102.848;2023-12-20T13:36:10;8.60;;;7.30;;
19971;SDS011;10147;16.402;102.848;2023-12-20T13:38:42;9.63;;;7.70;;
19971;SDS011;10147;16.402;102.848;2023-12-20T13:41:13;16.70;;;7.63;;
19971;SDS011;10147;16.402;102.848;2023-12-20T13:43:44;12.23;;;8.05;;
19971;SDS011;10147;16.402;102.848;2023-12-20T13:46:14;11.88;;;8.07;;
19971;SDS011;10147;16.402;102.848;2023-12-20T13:48:46;18.55;;;13.88;;
19971;SDS011;10147;16.402;102.848;2023-12-20T13:51:16;21.20;;;18.00;;
19971;SDS011;10147;16.402;102.848;2023-12-20T13:53:47;12.85;;;7.43;;
19971;SDS011;10147;16.402;102.848;2023-12-20T13:56:17;10.43;;;7.80;;
19971;SDS011;10147;16.402;102.848;2023-12-20T13:58:49;10.43;;;7.57;;
19971;SDS011;10147;16.402;102.848;2023-12-20T14:01:20;10.13;;;6.03;;
19971;SDS011;10147;16.402;102.848;2023-12-20T14:03:52;7.05;;;6.18;;
19971;SDS011;10147;16.402;102.848;2023-12-20T14:06:21;8.65;;;6.15;;
19971;SDS011;10147;16.402;102.848;2023-12-20T14:08:51;14.52;;;6.13;;
19971;SDS011;10147;16.402;102.848;2023-12-20T14:11:21;9.52;;;6.10;;
19971;SDS011;10147;16.402;102.848;2023-12-20T14:13:52;7.20;;;6.18;;
19971;SDS011;10147;16.402;102.848;2023-12-20T14:16:26;7.13;;;6.32;;
19971;SDS011;10147;16.402;102.848;2023-12-20T14:19:00;9.20;;;6.30;;
19971;SDS011;10147;16.402;102.848;2023-12-20T14:21:32;7.45;;;6.18;;
19971;SDS011;10147;16.402;102.848;2023-12-20T14:24:04;7.75;;;6.63;;
19971;SDS011;10147;16.402;102.848;2023-12-20T14:26:35;6.68;;;5.80;;
19971;SDS011;10147;16.402;102.848;2023-12-20T14:29:07;13.05;;;11.95;;
19971;SDS011;10147;16.402;102.848;2023-12-20T14:31:36;7.57;;;6.72;;
19971;SDS011;10147;16.402;102.848;2023-12-20T14:34:08;7.75;;;6.50;;